sensor_id;sensor_type;location;lat;lon;timestamp;temperature;humidity
5258;DHT22;2651;51.594;9.928;2023-05-01T00:00:52;8.20;99.90
5258;DHT22;2651;51.594;9.928;2023-05-01T00:01:53;8.20;99.90
5258;DHT22;2651;51.594;9.928;2023-05-01T00:02:55;8.20;99.90
5258;DHT22;2651;51.594;9.928;2023-05-01T00:03:57;8.20;99.90
5258;DHT22;2651;51.594;9.928;2023-05-01T00:04:59;8.20;99.90
5258;DHT22;2651;51.594;9.928;2023-05-01T00:06:02;8.20;99.90
5258;DHT22;2651;51.594;9.928;2023-05-01T00:07:05;8.20;1.00
5258;DHT22;2651;51.594;9.928;2023-05-01T00:08:07;8.30;1.00
5258;DHT22;2651;51.594;9.928;2023-05-01T00:09:08;8.30;99.90
5258;DHT22;2651;51.594;9.928;2023-05-01T00:10:10;8.30;99.90
5258;DHT22;2651;51.594;9.928;2023-05-01T00:11:12;8.30;99.90
5258;DHT22;2651;51.594;9.928;2023-05-01T00:12:14;8.30;99.90
5258;DHT22;2651;51.594;9.928;2023-05-01T00:13:16;8.30;99.90
5258;DHT22;2651;51.594;9.928;2023-05-01T00:14:22;8.30;99.90
5258;DHT22;2651;51.594;9.928;2023-05-01T00:15:23;8.30;99.90
5258;DHT22;2651;51.594;9.928;2023-05-01T00:16:25;8.30;99.90
5258;DHT22;2651;51.594;9.928;2023-05-01T00:17:27;8.20;1.00
5258;DHT22;2651;51.594;9.928;2023-05-01T00:18:29;8.20;1.00
5258;DHT22;2651;51.594;9.928;2023-05-01T00:19:31;8.10;1.00
5258;DHT22;2651;51.594;9.928;2023-05-01T00:20:33;7.80;1.00
5258;DHT22;2651;51.594;9.928;2023-05-01T00:21:34;7.70;1.00
5258;DHT22;2651;51.594;9.928;2023-05-01T00:22:36;7.60;1.00
5258;DHT22;2651;51.594;9.928;2023-05-01T00:23:38;7.60;1.00
5258;DHT22;2651;51.594;9.928;2023-05-01T00:24:39;7.40;1.00
5258;DHT22;2651;51.594;9.928;2023-05-01T00:25:41;7.40;1.00
5258;DHT22;2651;51.594;9.928;2023-05-01T00:26:43;7.30;1.00
5258;DHT22;2651;51.594;9.928;2023-05-01T00:27:45;7.30;16.60
5258;DHT22;2651;51.594;9.928;2023-05-01T00:28:47;7.40;83.70
5258;DHT22;2651;51.594;9.928;2023-05-01T00:29:49;7.30;1.00
5258;DHT22;2651;51.594;9.928;2023-05-01T00:30:51;7.30;1.00
5258;DHT22;2651;51.594;9.928;2023-05-01T00:31:53;7.30;13.20
5258;DHT22;2651;51.594;9.928;2023-05-01T00:32:55;7.40;78.50
5258;DHT22;2651;51.594;9.928;2023-05-01T00:33:57;7.40;1.00
5258;DHT22;2651;51.594;9.928;2023-05-01T00:34:59;7.30;1.00
5258;DHT22;2651;51.594;9.928;2023-05-01T00:36:01;7.30;1.00
5258;DHT22;2651;51.594;9.928;2023-05-01T00:37:02;7.30;21.70
5258;DHT22;2651;51.594;9.928;2023-05-01T00:38:04;7.40;99.90
5258;DHT22;2651;51.594;9.928;2023-05-01T00:39:06;7.30;1.00
5258;DHT22;2651;51.594;9.928;2023-05-01T00:40:08;7.20;1.00
5258;DHT22;2651;51.594;9.928;2023-05-01T00:41:10;7.20;99.90
5258;DHT22;2651;51.594;9.928;2023-05-01T00:42:11;7.20;37.90
5258;DHT22;2651;51.594;9.928;2023-05-01T00:43:13;7.10;24.30
5258;DHT22;2651;51.594;9.928;2023-05-01T00:44:15;7.10;99.40
5258;DHT22;2651;51.594;9.928;2023-05-01T00:45:17;7.10;99.90
5258;DHT22;2651;51.594;9.928;2023-05-01T00:46:19;7.20;99.90
5258;DHT22;2651;51.594;9.928;2023-05-01T00:47:20;7.20;99.90
5258;DHT22;2651;51.594;9.928;2023-05-01T00:48:22;7.30;99.90
5258;DHT22;2651;51.594;9.928;2023-05-01T00:49:25;7.20;43.80
5258;DHT22;2651;51.594;9.928;2023-05-01T00:50:27;7.10;93.20
5258;DHT22;2651;51.594;9.928;2023-05-01T00:51:28;7.10;99.90
5258;DHT22;2651;51.594;9.928;2023-05-01T00:52:31;7.10;99.90
5258;DHT22;2651;51.594;9.928;2023-05-01T00:53:33;7.10;99.90
5258;DHT22;2651;51.594;9.928;2023-05-01T00:54:36;7.10;99.90
5258;DHT22;2651;51.594;9.928;2023-05-01T00:55:40;7.20;99.90
5258;DHT22;2651;51.594;9.928;2023-05-01T00:56:42;7.30;99.90
5258;DHT22;2651;51.594;9.928;2023-05-01T00:57:44;7.30;99.90
5258;DHT22;2651;51.594;9.928;2023-05-01T00:58:49;7.40;78.80
5258;DHT22;2651;51.594;9.928;2023-05-01T00:59:53;7.40;1.00
5258;DHT22;2651;51.594;9.928;2023-05-01T01:00:55;7.30;1.00
5258;DHT22;2651;51.594;9.928;2023-05-01T01:01:57;7.40;1.00
5258;DHT22;2651;51.594;9.928;2023-05-01T01:02:59;7.40;1.00
5258;DHT22;2651;51.594;9.928;2023-05-01T01:04:01;7.40;1.00
5258;DHT22;2651;51.594;9.928;2023-05-01T01:05:03;7.40;1.00
5258;DHT22;2651;51.594;9.928;2023-05-01T01:06:09;7.40;1.00
5258;DHT22;2651;51.594;9.928;2023-05-01T01:07:39;7.40;1.00
5258;DHT22;2651;51.594;9.928;2023-05-01T01:11:35;7.20;1.00
5258;DHT22;2651;51.594;9.928;2023-05-01T01:12:47;7.20;1.00
5258;DHT22;2651;51.594;9.928;2023-05-01T01:14:07;7.10;1.00
5258;DHT22;2651;51.594;9.928;2023-05-01T01:15:18;7.10;1.00
5258;DHT22;2651;51.594;9.928;2023-05-01T01:16:29;7.00;36.00
5258;DHT22;2651;51.594;9.928;2023-05-01T01:17:44;7.00;53.00
5258;DHT22;2651;51.594;9.928;2023-05-01T01:21:41;6.90;99.90
5258;DHT22;2651;51.594;9.928;2023-05-01T01:22:48;6.90;99.90
5258;DHT22;2651;51.594;9.928;2023-05-01T01:24:09;6.90;99.90
5258;DHT22;2651;51.594;9.928;2023-05-01T01:28:31;6.60;99.90
5258;DHT22;2651;51.594;9.928;2023-05-01T01:34:12;6.40;1.00
5258;DHT22;2651;51.594;9.928;2023-05-01T01:35:19;6.30;1.00
5258;DHT22;2651;51.594;9.928;2023-05-01T01:37:49;6.50;1.00
5258;DHT22;2651;51.594;9.928;2023-05-01T01:39:12;6.50;1.00
5258;DHT22;2651;51.594;9.928;2023-05-01T01:40:24;6.60;1.00
5258;DHT22;2651;51.594;9.928;2023-05-01T01:41:32;6.60;1.00
5258;DHT22;2651;51.594;9.928;2023-05-01T01:42:45;6.60;99.90
5258;DHT22;2651;51.594;9.928;2023-05-01T01:43:54;6.60;1.00
5258;DHT22;2651;51.594;9.928;2023-05-01T01:45:00;6.60;1.00
5258;DHT22;2651;51.594;9.928;2023-05-01T01:46:04;6.50;1.00
5258;DHT22;2651;51.594;9.928;2023-05-01T01:47:09;6.50;1.00
5258;DHT22;2651;51.594;9.928;2023-05-01T01:48:16;6.60;1.00
5258;DHT22;2651;51.594;9.928;2023-05-01T01:49:23;6.50;1.00
5258;DHT22;2651;51.594;9.928;2023-05-01T01:50:28;6.50;1.00
5258;DHT22;2651;51.594;9.928;2023-05-01T01:51:31;6.40;1.00
5258;DHT22;2651;51.594;9.928;2023-05-01T01:52:35;6.40;1.00
5258;DHT22;2651;51.594;9.928;2023-05-01T01:53:38;6.40;1.00
5258;DHT22;2651;51.594;9.928;2023-05-01T01:54:46;6.40;1.00
5258;DHT22;2651;51.594;9.928;2023-05-01T01:55:49;6.40;1.00
5258;DHT22;2651;51.594;9.928;2023-05-01T01:56:52;6.50;1.00
5258;DHT22;2651;51.594;9.928;2023-05-01T01:57:57;6.50;1.00
5258;DHT22;2651;51.594;9.928;2023-05-01T01:59:00;6.50;1.00
5258;DHT22;2651;51.594;9.928;2023-05-01T02:00:02;6.50;1.00
5258;DHT22;2651;51.594;9.928;2023-05-01T02:01:09;6.50;1.00
5258;DHT22;2651;51.594;9.928;2023-05-01T02:02:13;6.50;1.00
5258;DHT22;2651;51.594;9.928;2023-05-01T02:03:16;6.50;1.00
5258;DHT22;2651;51.594;9.928;2023-05-01T02:04:18;6.50;1.00
5258;DHT22;2651;51.594;9.928;2023-05-01T02:05:20;6.50;1.00
5258;DHT22;2651;51.594;9.928;2023-05-01T02:06:23;6.60;1.00
5258;DHT22;2651;51.594;9.928;2023-05-01T02:07:26;6.60;1.00
5258;DHT22;2651;51.594;9.928;2023-05-01T02:08:30;6.60;1.00
5258;DHT22;2651;51.594;9.928;2023-05-01T02:09:33;6.60;1.00
5258;DHT22;2651;51.594;9.928;2023-05-01T02:10:36;6.60;1.00
5258;DHT22;2651;51.594;9.928;2023-05-01T02:11:39;6.60;1.00
5258;DHT22;2651;51.594;9.928;2023-05-01T02:12:43;6.50;1.00
5258;DHT22;2651;51.594;9.928;2023-05-01T02:13:48;6.50;1.00
5258;DHT22;2651;51.594;9.928;2023-05-01T02:14:50;6.40;1.00
5258;DHT22;2651;51.594;9.928;2023-05-01T02:15:57;6.30;1.00
5258;DHT22;2651;51.594;9.928;2023-05-01T02:16:59;6.30;1.00
5258;DHT22;2651;51.594;9.928;2023-05-01T02:18:02;6.30;1.00
5258;DHT22;2651;51.594;9.928;2023-05-01T02:19:06;6.30;1.00
5258;DHT22;2651;51.594;9.928;2023-05-01T02:20:10;6.30;1.00
5258;DHT22;2651;51.594;9.928;2023-05-01T02:21:13;6.20;1.00
5258;DHT22;2651;51.594;9.928;2023-05-01T02:22:17;6.20;1.00
5258;DHT22;2651;51.594;9.928;2023-05-01T02:23:19;6.20;1.00
5258;DHT22;2651;51.594;9.928;2023-05-01T02:24:23;6.20;1.00
5258;DHT22;2651;51.594;9.928;2023-05-01T02:25:26;6.30;16.70
5258;DHT22;2651;51.594;9.928;2023-05-01T02:26:42;6.30;1.00
5258;DHT22;2651;51.594;9.928;2023-05-01T02:27:49;6.30;9.70
5258;DHT22;2651;51.594;9.928;2023-05-01T02:28:53;6.30;1.00
5258;DHT22;2651;51.594;9.928;2023-05-01T02:29:55;6.40;1.00
5258;DHT22;2651;51.594;9.928;2023-05-01T02:30:58;6.40;1.00
5258;DHT22;2651;51.594;9.928;2023-05-01T02:32:00;6.50;1.00
5258;DHT22;2651;51.594;9.928;2023-05-01T02:33:01;6.50;1.00
5258;DHT22;2651;51.594;9.928;2023-05-01T02:34:04;6.50;1.00
5258;DHT22;2651;51.594;9.928;2023-05-01T02:35:06;6.40;1.00
5258;DHT22;2651;51.594;9.928;2023-05-01T02:36:08;6.50;1.00
5258;DHT22;2651;51.594;9.928;2023-05-01T02:37:10;6.40;1.00
5258;DHT22;2651;51.594;9.928;2023-05-01T02:38:15;6.40;1.00
5258;DHT22;2651;51.594;9.928;2023-05-01T02:39:17;6.40;1.00
5258;DHT22;2651;51.594;9.928;2023-05-01T02:40:19;6.20;1.00
5258;DHT22;2651;51.594;9.928;2023-05-01T02:41:21;6.20;1.00
5258;DHT22;2651;51.594;9.928;2023-05-01T02:42:25;6.00;1.00
5258;DHT22;2651;51.594;9.928;2023-05-01T02:43:27;5.90;1.00
5258;DHT22;2651;51.594;9.928;2023-05-01T02:44:37;6.00;99.90
5258;DHT22;2651;51.594;9.928;2023-05-01T02:45:41;6.00;99.90
5258;DHT22;2651;51.594;9.928;2023-05-01T02:46:46;6.10;99.90
5258;DHT22;2651;51.594;9.928;2023-05-01T02:47:53;6.10;99.90
5258;DHT22;2651;51.594;9.928;2023-05-01T02:48:56;6.10;99.90
5258;DHT22;2651;51.594;9.928;2023-05-01T02:50:00;6.10;1.00
5258;DHT22;2651;51.594;9.928;2023-05-01T02:51:03;6.10;39.00
5258;DHT22;2651;51.594;9.928;2023-05-01T02:52:06;6.20;99.90
5258;DHT22;2651;51.594;9.928;2023-05-01T02:53:08;6.20;50.00
5258;DHT22;2651;51.594;9.928;2023-05-01T02:54:11;6.20;89.70
5258;DHT22;2651;51.594;9.928;2023-05-01T02:55:13;6.20;1.00
5258;DHT22;2651;51.594;9.928;2023-05-01T02:56:15;6.20;1.00
5258;DHT22;2651;51.594;9.928;2023-05-01T02:57:17;6.30;1.00
5258;DHT22;2651;51.594;9.928;2023-05-01T02:58:20;6.30;1.00
5258;DHT22;2651;51.594;9.928;2023-05-01T02:59:22;6.20;1.00
5258;DHT22;2651;51.594;9.928;2023-05-01T03:00:25;6.20;1.00
5258;DHT22;2651;51.594;9.928;2023-05-01T03:01:26;6.20;1.00
5258;DHT22;2651;51.594;9.928;2023-05-01T03:02:29;6.20;1.00
5258;DHT22;2651;51.594;9.928;2023-05-01T03:03:30;6.20;1.00
5258;DHT22;2651;51.594;9.928;2023-05-01T03:04:32;6.20;1.00
5258;DHT22;2651;51.594;9.928;2023-05-01T03:05:34;6.10;1.00
5258;DHT22;2651;51.594;9.928;2023-05-01T03:06:35;6.10;57.20
5258;DHT22;2651;51.594;9.928;2023-05-01T03:07:37;6.10;99.90
5258;DHT22;2651;51.594;9.928;2023-05-01T03:08:39;6.00;99.90
5258;DHT22;2651;51.594;9.928;2023-05-01T03:09:41;6.00;99.90
5258;DHT22;2651;51.594;9.928;2023-05-01T03:10:42;6.00;99.90
5258;DHT22;2651;51.594;9.928;2023-05-01T03:11:44;6.00;99.90
5258;DHT22;2651;51.594;9.928;2023-05-01T03:12:46;5.90;99.90
5258;DHT22;2651;51.594;9.928;2023-05-01T03:13:48;5.90;99.90
5258;DHT22;2651;51.594;9.928;2023-05-01T03:14:49;5.90;99.90
5258;DHT22;2651;51.594;9.928;2023-05-01T03:15:51;5.90;1.00
5258;DHT22;2651;51.594;9.928;2023-05-01T03:16:54;5.90;1.00
5258;DHT22;2651;51.594;9.928;2023-05-01T03:17:56;5.90;99.90
5258;DHT22;2651;51.594;9.928;2023-05-01T03:18:58;5.80;1.00
5258;DHT22;2651;51.594;9.928;2023-05-01T03:19:59;5.80;1.00
5258;DHT22;2651;51.594;9.928;2023-05-01T03:21:01;5.90;1.00
5258;DHT22;2651;51.594;9.928;2023-05-01T03:22:02;5.90;1.00
5258;DHT22;2651;51.594;9.928;2023-05-01T03:23:04;5.80;1.00
5258;DHT22;2651;51.594;9.928;2023-05-01T03:24:07;5.70;1.00
5258;DHT22;2651;51.594;9.928;2023-05-01T03:25:09;5.60;1.00
5258;DHT22;2651;51.594;9.928;2023-05-01T03:26:10;5.50;1.00
5258;DHT22;2651;51.594;9.928;2023-05-01T03:27:12;5.40;1.00
5258;DHT22;2651;51.594;9.928;2023-05-01T03:28:14;5.30;99.90
5258;DHT22;2651;51.594;9.928;2023-05-01T03:29:15;5.30;1.00
5258;DHT22;2651;51.594;9.928;2023-05-01T03:30:17;5.30;99.90
5258;DHT22;2651;51.594;9.928;2023-05-01T03:31:19;5.40;99.90
5258;DHT22;2651;51.594;9.928;2023-05-01T03:32:22;5.50;99.90
5258;DHT22;2651;51.594;9.928;2023-05-01T03:33:24;5.50;1.00
5258;DHT22;2651;51.594;9.928;2023-05-01T03:34:26;5.60;1.00
5258;DHT22;2651;51.594;9.928;2023-05-01T03:35:28;5.60;99.90
5258;DHT22;2651;51.594;9.928;2023-05-01T03:36:29;5.60;99.90
5258;DHT22;2651;51.594;9.928;2023-05-01T03:37:34;5.60;99.90
5258;DHT22;2651;51.594;9.928;2023-05-01T03:38:36;5.70;99.90
5258;DHT22;2651;51.594;9.928;2023-05-01T03:39:38;5.70;53.90
5258;DHT22;2651;51.594;9.928;2023-05-01T03:40:39;5.70;33.00
5258;DHT22;2651;51.594;9.928;2023-05-01T03:41:41;5.70;99.40
5258;DHT22;2651;51.594;9.928;2023-05-01T03:42:43;5.70;1.00
5258;DHT22;2651;51.594;9.928;2023-05-01T03:43:45;5.70;39.90
5258;DHT22;2651;51.594;9.928;2023-05-01T03:44:46;5.70;1.00
5258;DHT22;2651;51.594;9.928;2023-05-01T03:45:48;5.60;1.00
5258;DHT22;2651;51.594;9.928;2023-05-01T03:46:51;5.60;1.00
5258;DHT22;2651;51.594;9.928;2023-05-01T03:47:53;5.60;99.90
5258;DHT22;2651;51.594;9.928;2023-05-01T03:48:55;5.60;99.90
5258;DHT22;2651;51.594;9.928;2023-05-01T03:49:57;5.60;99.90
5258;DHT22;2651;51.594;9.928;2023-05-01T03:50:59;5.60;1.00
5258;DHT22;2651;51.594;9.928;2023-05-01T03:52:01;5.60;99.90
5258;DHT22;2651;51.594;9.928;2023-05-01T03:53:02;5.60;99.90
5258;DHT22;2651;51.594;9.928;2023-05-01T03:54:05;5.60;99.90
5258;DHT22;2651;51.594;9.928;2023-05-01T03:55:07;5.60;99.90
5258;DHT22;2651;51.594;9.928;2023-05-01T03:56:09;5.60;46.30
5258;DHT22;2651;51.594;9.928;2023-05-01T03:57:10;5.60;99.90
5258;DHT22;2651;51.594;9.928;2023-05-01T03:58:12;5.50;99.90
5258;DHT22;2651;51.594;9.928;2023-05-01T03:59:14;5.40;1.00
5258;DHT22;2651;51.594;9.928;2023-05-01T04:00:15;5.50;1.00
5258;DHT22;2651;51.594;9.928;2023-05-01T04:01:17;5.50;1.00
5258;DHT22;2651;51.594;9.928;2023-05-01T04:02:20;5.50;1.00
5258;DHT22;2651;51.594;9.928;2023-05-01T04:03:21;5.50;99.90
5258;DHT22;2651;51.594;9.928;2023-05-01T04:04:23;5.50;99.90
5258;DHT22;2651;51.594;9.928;2023-05-01T04:05:25;5.50;99.90
5258;DHT22;2651;51.594;9.928;2023-05-01T04:06:27;5.50;1.00
5258;DHT22;2651;51.594;9.928;2023-05-01T04:07:28;5.50;1.00
5258;DHT22;2651;51.594;9.928;2023-05-01T04:08:30;5.60;1.00
5258;DHT22;2651;51.594;9.928;2023-05-01T04:09:32;5.60;1.00
5258;DHT22;2651;51.594;9.928;2023-05-01T04:10:33;5.60;1.00
5258;DHT22;2651;51.594;9.928;2023-05-01T04:11:36;5.70;1.00
5258;DHT22;2651;51.594;9.928;2023-05-01T04:12:38;5.70;99.90
5258;DHT22;2651;51.594;9.928;2023-05-01T04:13:39;5.70;99.90
5258;DHT22;2651;51.594;9.928;2023-05-01T04:14:41;5.70;1.00
5258;DHT22;2651;51.594;9.928;2023-05-01T04:15:45;5.70;1.00
5258;DHT22;2651;51.594;9.928;2023-05-01T04:16:49;5.70;6.30
5258;DHT22;2651;51.594;9.928;2023-05-01T04:17:51;5.70;31.60
5258;DHT22;2651;51.594;9.928;2023-05-01T04:18:54;5.70;99.90
5258;DHT22;2651;51.594;9.928;2023-05-01T04:19:56;5.70;1.00
5258;DHT22;2651;51.594;9.928;2023-05-01T04:20:58;5.60;1.00
5258;DHT22;2651;51.594;9.928;2023-05-01T04:21:59;5.60;1.00
5258;DHT22;2651;51.594;9.928;2023-05-01T04:23:01;5.60;99.90
5258;DHT22;2651;51.594;9.928;2023-05-01T04:24:03;5.70;99.90
5258;DHT22;2651;51.594;9.928;2023-05-01T04:25:06;5.80;99.90
5258;DHT22;2651;51.594;9.928;2023-05-01T04:26:09;5.80;99.90
5258;DHT22;2651;51.594;9.928;2023-05-01T04:27:10;5.80;99.90
5258;DHT22;2651;51.594;9.928;2023-05-01T04:28:12;5.90;1.00
5258;DHT22;2651;51.594;9.928;2023-05-01T04:29:14;5.80;1.00
5258;DHT22;2651;51.594;9.928;2023-05-01T04:30:16;5.70;1.00
5258;DHT22;2651;51.594;9.928;2023-05-01T04:31:18;5.70;1.00
5258;DHT22;2651;51.594;9.928;2023-05-01T04:32:19;5.70;99.90
5258;DHT22;2651;51.594;9.928;2023-05-01T04:33:22;5.60;99.90
5258;DHT22;2651;51.594;9.928;2023-05-01T04:34:23;5.70;1.00
5258;DHT22;2651;51.594;9.928;2023-05-01T04:35:29;5.80;1.00
5258;DHT22;2651;51.594;9.928;2023-05-01T04:36:31;5.90;1.00
5258;DHT22;2651;51.594;9.928;2023-05-01T04:37:33;5.90;1.00
5258;DHT22;2651;51.594;9.928;2023-05-01T04:38:36;6.00;99.90
5258;DHT22;2651;51.594;9.928;2023-05-01T04:39:37;6.00;22.80
5258;DHT22;2651;51.594;9.928;2023-05-01T04:40:39;6.10;1.00
5258;DHT22;2651;51.594;9.928;2023-05-01T04:41:41;6.10;1.00
5258;DHT22;2651;51.594;9.928;2023-05-01T04:42:42;6.10;1.00
5258;DHT22;2651;51.594;9.928;2023-05-01T04:43:44;6.10;1.00
5258;DHT22;2651;51.594;9.928;2023-05-01T04:44:46;6.10;1.00
5258;DHT22;2651;51.594;9.928;2023-05-01T04:45:47;6.10;1.00
5258;DHT22;2651;51.594;9.928;2023-05-01T04:46:49;6.10;1.00
5258;DHT22;2651;51.594;9.928;2023-05-01T04:47:50;6.20;1.00
5258;DHT22;2651;51.594;9.928;2023-05-01T04:48:52;6.20;1.00
5258;DHT22;2651;51.594;9.928;2023-05-01T04:49:54;6.20;30.90
5258;DHT22;2651;51.594;9.928;2023-05-01T04:50:56;6.30;1.00
5258;DHT22;2651;51.594;9.928;2023-05-01T04:51:57;6.30;1.00
5258;DHT22;2651;51.594;9.928;2023-05-01T04:52:59;6.40;1.00
5258;DHT22;2651;51.594;9.928;2023-05-01T04:54:01;6.40;99.90
5258;DHT22;2651;51.594;9.928;2023-05-01T04:55:03;6.50;99.90
5258;DHT22;2651;51.594;9.928;2023-05-01T04:56:04;6.50;99.90
5258;DHT22;2651;51.594;9.928;2023-05-01T04:57:06;6.50;99.90
5258;DHT22;2651;51.594;9.928;2023-05-01T04:58:08;6.50;99.90
5258;DHT22;2651;51.594;9.928;2023-05-01T04:59:09;6.50;80.00
5258;DHT22;2651;51.594;9.928;2023-05-01T05:00:11;6.50;1.00
5258;DHT22;2651;51.594;9.928;2023-05-01T05:01:13;6.50;99.90
5258;DHT22;2651;51.594;9.928;2023-05-01T05:02:14;6.60;95.20
5258;DHT22;2651;51.594;9.928;2023-05-01T05:03:16;6.60;99.90
5258;DHT22;2651;51.594;9.928;2023-05-01T05:04:19;6.60;99.90
5258;DHT22;2651;51.594;9.928;2023-05-01T05:05:21;6.60;99.90
5258;DHT22;2651;51.594;9.928;2023-05-01T05:06:22;6.60;99.90
5258;DHT22;2651;51.594;9.928;2023-05-01T05:07:24;6.60;99.90
5258;DHT22;2651;51.594;9.928;2023-05-01T05:08:25;6.60;99.90
5258;DHT22;2651;51.594;9.928;2023-05-01T05:09:27;6.60;99.90
5258;DHT22;2651;51.594;9.928;2023-05-01T05:10:29;6.70;90.30
5258;DHT22;2651;51.594;9.928;2023-05-01T05:11:31;6.70;1.00
5258;DHT22;2651;51.594;9.928;2023-05-01T05:12:32;6.70;1.00
5258;DHT22;2651;51.594;9.928;2023-05-01T05:13:34;6.70;1.00
5258;DHT22;2651;51.594;9.928;2023-05-01T05:14:35;6.70;1.00
5258;DHT22;2651;51.594;9.928;2023-05-01T05:15:37;6.70;1.00
5258;DHT22;2651;51.594;9.928;2023-05-01T05:16:39;6.60;1.00
5258;DHT22;2651;51.594;9.928;2023-05-01T05:17:40;6.70;99.90
5258;DHT22;2651;51.594;9.928;2023-05-01T05:18:42;6.70;99.90
5258;DHT22;2651;51.594;9.928;2023-05-01T05:19:44;6.70;1.00
5258;DHT22;2651;51.594;9.928;2023-05-01T05:20:45;6.80;1.00
5258;DHT22;2651;51.594;9.928;2023-05-01T05:21:47;6.80;1.00
5258;DHT22;2651;51.594;9.928;2023-05-01T05:22:49;6.80;1.00
5258;DHT22;2651;51.594;9.928;2023-05-01T05:23:50;6.90;1.00
5258;DHT22;2651;51.594;9.928;2023-05-01T05:24:53;6.90;1.00
5258;DHT22;2651;51.594;9.928;2023-05-01T05:25:56;6.90;1.00
5258;DHT22;2651;51.594;9.928;2023-05-01T05:27:02;6.90;99.90
5258;DHT22;2651;51.594;9.928;2023-05-01T05:28:04;6.90;99.90
5258;DHT22;2651;51.594;9.928;2023-05-01T05:29:06;6.90;99.90
5258;DHT22;2651;51.594;9.928;2023-05-01T05:30:08;6.90;99.90
5258;DHT22;2651;51.594;9.928;2023-05-01T05:31:10;6.90;99.90
5258;DHT22;2651;51.594;9.928;2023-05-01T05:32:12;6.90;1.00
5258;DHT22;2651;51.594;9.928;2023-05-01T05:33:13;6.90;1.00
5258;DHT22;2651;51.594;9.928;2023-05-01T05:34:15;7.00;1.00
5258;DHT22;2651;51.594;9.928;2023-05-01T05:35:18;7.00;1.00
5258;DHT22;2651;51.594;9.928;2023-05-01T05:36:19;7.00;1.00
5258;DHT22;2651;51.594;9.928;2023-05-01T05:37:21;7.00;1.00
5258;DHT22;2651;51.594;9.928;2023-05-01T05:38:23;7.00;1.00
5258;DHT22;2651;51.594;9.928;2023-05-01T05:39:24;7.00;1.00
5258;DHT22;2651;51.594;9.928;2023-05-01T05:40:26;7.00;99.90
5258;DHT22;2651;51.594;9.928;2023-05-01T05:41:28;7.10;1.00
5258;DHT22;2651;51.594;9.928;2023-05-01T05:42:30;7.10;1.00
5258;DHT22;2651;51.594;9.928;2023-05-01T05:43:31;7.10;1.00
5258;DHT22;2651;51.594;9.928;2023-05-01T05:44:33;7.20;99.90
5258;DHT22;2651;51.594;9.928;2023-05-01T05:45:36;7.10;99.90
5258;DHT22;2651;51.594;9.928;2023-05-01T05:46:38;7.20;1.00
5258;DHT22;2651;51.594;9.928;2023-05-01T05:47:40;7.20;99.90
5258;DHT22;2651;51.594;9.928;2023-05-01T05:48:41;7.30;99.90
5258;DHT22;2651;51.594;9.928;2023-05-01T05:49:43;7.40;99.90
5258;DHT22;2651;51.594;9.928;2023-05-01T05:50:45;7.40;99.90
5258;DHT22;2651;51.594;9.928;2023-05-01T05:51:47;7.50;99.20
5258;DHT22;2651;51.594;9.928;2023-05-01T05:52:48;7.50;32.30
5258;DHT22;2651;51.594;9.928;2023-05-01T05:53:50;7.50;99.90
5258;DHT22;2651;51.594;9.928;2023-05-01T05:54:52;7.60;99.90
5258;DHT22;2651;51.594;9.928;2023-05-01T05:55:53;7.70;99.90
5258;DHT22;2651;51.594;9.928;2023-05-01T05:56:55;7.70;17.30
5258;DHT22;2651;51.594;9.928;2023-05-01T05:57:57;7.80;1.00
5258;DHT22;2651;51.594;9.928;2023-05-01T05:58:58;7.80;1.00
5258;DHT22;2651;51.594;9.928;2023-05-01T06:00:04;7.90;1.00
5258;DHT22;2651;51.594;9.928;2023-05-01T06:01:06;7.90;1.00
5258;DHT22;2651;51.594;9.928;2023-05-01T06:02:09;8.00;1.00
5258;DHT22;2651;51.594;9.928;2023-05-01T06:03:11;8.10;1.00
5258;DHT22;2651;51.594;9.928;2023-05-01T06:04:13;8.10;1.00
5258;DHT22;2651;51.594;9.928;2023-05-01T06:05:15;8.20;1.00
5258;DHT22;2651;51.594;9.928;2023-05-01T06:06:17;8.30;1.00
5258;DHT22;2651;51.594;9.928;2023-05-01T06:07:20;8.30;1.00
5258;DHT22;2651;51.594;9.928;2023-05-01T06:08:22;8.40;1.00
5258;DHT22;2651;51.594;9.928;2023-05-01T06:09:24;8.50;1.00
5258;DHT22;2651;51.594;9.928;2023-05-01T06:10:26;8.50;1.00
5258;DHT22;2651;51.594;9.928;2023-05-01T06:11:28;8.60;1.00
5258;DHT22;2651;51.594;9.928;2023-05-01T06:12:30;8.70;1.00
5258;DHT22;2651;51.594;9.928;2023-05-01T06:13:32;8.70;1.00
5258;DHT22;2651;51.594;9.928;2023-05-01T06:14:34;8.70;99.90
5258;DHT22;2651;51.594;9.928;2023-05-01T06:15:36;8.70;99.90
5258;DHT22;2651;51.594;9.928;2023-05-01T06:16:38;8.70;99.90
5258;DHT22;2651;51.594;9.928;2023-05-01T06:17:41;8.70;99.90
5258;DHT22;2651;51.594;9.928;2023-05-01T06:18:43;8.70;1.00
5258;DHT22;2651;51.594;9.928;2023-05-01T06:19:46;8.80;1.00
5258;DHT22;2651;51.594;9.928;2023-05-01T06:20:48;8.90;1.00
5258;DHT22;2651;51.594;9.928;2023-05-01T06:21:49;8.90;99.90
5258;DHT22;2651;51.594;9.928;2023-05-01T06:22:51;9.00;99.90
5258;DHT22;2651;51.594;9.928;2023-05-01T06:23:52;9.00;99.90
5258;DHT22;2651;51.594;9.928;2023-05-01T06:24:54;9.10;99.90
5258;DHT22;2651;51.594;9.928;2023-05-01T06:25:55;9.10;99.90
5258;DHT22;2651;51.594;9.928;2023-05-01T06:26:57;9.10;65.20
5258;DHT22;2651;51.594;9.928;2023-05-01T06:28:01;9.10;99.90
5258;DHT22;2651;51.594;9.928;2023-05-01T06:29:04;9.10;99.90
5258;DHT22;2651;51.594;9.928;2023-05-01T06:30:06;9.20;58.90
5258;DHT22;2651;51.594;9.928;2023-05-01T06:31:09;9.20;1.00
5258;DHT22;2651;51.594;9.928;2023-05-01T06:32:11;9.20;1.00
5258;DHT22;2651;51.594;9.928;2023-05-01T06:33:13;9.20;1.00
5258;DHT22;2651;51.594;9.928;2023-05-01T06:34:14;9.30;1.00
5258;DHT22;2651;51.594;9.928;2023-05-01T06:35:16;9.30;1.00
5258;DHT22;2651;51.594;9.928;2023-05-01T06:36:18;9.40;1.00
5258;DHT22;2651;51.594;9.928;2023-05-01T06:37:19;9.40;1.00
5258;DHT22;2651;51.594;9.928;2023-05-01T06:38:21;9.40;1.00
5258;DHT22;2651;51.594;9.928;2023-05-01T06:39:26;9.50;1.00
5258;DHT22;2651;51.594;9.928;2023-05-01T06:40:28;9.50;1.00
5258;DHT22;2651;51.594;9.928;2023-05-01T06:41:33;9.60;1.00
5258;DHT22;2651;51.594;9.928;2023-05-01T06:42:35;9.60;1.00
5258;DHT22;2651;51.594;9.928;2023-05-01T06:43:37;9.70;1.00
5258;DHT22;2651;51.594;9.928;2023-05-01T06:44:39;9.70;1.00
5258;DHT22;2651;51.594;9.928;2023-05-01T06:45:40;9.70;1.00
5258;DHT22;2651;51.594;9.928;2023-05-01T06:46:42;9.80;1.00
5258;DHT22;2651;51.594;9.928;2023-05-01T06:47:44;9.90;1.00
5258;DHT22;2651;51.594;9.928;2023-05-01T06:48:46;9.90;1.00
5258;DHT22;2651;51.594;9.928;2023-05-01T06:49:47;9.90;1.00
5258;DHT22;2651;51.594;9.928;2023-05-01T06:50:49;10.00;1.00
5258;DHT22;2651;51.594;9.928;2023-05-01T06:51:51;10.00;1.00
5258;DHT22;2651;51.594;9.928;2023-05-01T06:52:52;10.10;1.00
5258;DHT22;2651;51.594;9.928;2023-05-01T06:53:54;10.10;1.00
5258;DHT22;2651;51.594;9.928;2023-05-01T06:54:56;10.20;1.00
5258;DHT22;2651;51.594;9.928;2023-05-01T06:55:57;10.20;1.00
5258;DHT22;2651;51.594;9.928;2023-05-01T06:56:59;10.30;1.00
5258;DHT22;2651;51.594;9.928;2023-05-01T06:58:01;10.30;1.00
5258;DHT22;2651;51.594;9.928;2023-05-01T06:59:12;10.40;1.00
5258;DHT22;2651;51.594;9.928;2023-05-01T07:00:14;10.40;1.00
5258;DHT22;2651;51.594;9.928;2023-05-01T07:01:18;10.50;1.00
5258;DHT22;2651;51.594;9.928;2023-05-01T07:02:20;10.50;1.00
5258;DHT22;2651;51.594;9.928;2023-05-01T07:03:22;10.50;1.00
5258;DHT22;2651;51.594;9.928;2023-05-01T07:04:23;10.40;1.00
5258;DHT22;2651;51.594;9.928;2023-05-01T07:05:25;10.40;1.00
5258;DHT22;2651;51.594;9.928;2023-05-01T07:06:27;10.50;1.00
5258;DHT22;2651;51.594;9.928;2023-05-01T07:07:29;10.60;1.00
5258;DHT22;2651;51.594;9.928;2023-05-01T07:08:31;10.60;1.00
5258;DHT22;2651;51.594;9.928;2023-05-01T07:09:32;10.60;1.00
5258;DHT22;2651;51.594;9.928;2023-05-01T07:10:34;10.70;1.00
5258;DHT22;2651;51.594;9.928;2023-05-01T07:11:36;10.70;1.00
5258;DHT22;2651;51.594;9.928;2023-05-01T07:12:38;10.80;1.00
5258;DHT22;2651;51.594;9.928;2023-05-01T07:13:40;10.80;1.00
5258;DHT22;2651;51.594;9.928;2023-05-01T07:14:42;10.80;1.00
5258;DHT22;2651;51.594;9.928;2023-05-01T07:15:44;10.80;1.00